Bocholt, Germany

7:45 PM CET on December 28, 2014 (GMT +0100)
INRWSCHE2 | Change Station
CLOSE
Current Station
Personal Weather Station
Location: Hamminkeln / Dingden, Nordrhein-Westfalen
Elevation: 157 ft
Nearby Weather Stations

Elev 157 ft 51.79 °N, 6.63 °E | Updated 2 minutes ago

Light Freezing Fog
Freezing Fog
29.7 °F
Feels Like 30 °F
N
0.2
Wind Variable Wind from SE
Gusts 0.0 mph

Today
High -- | Low -- °F
--% Chance of Precip.
Yesterday
High -- | Low -- °F
Precip. -- in
8:41 AM 4:29 PM
Waxing Crescent, 50% visible
Pressure 30.48 in
Visibility 0.3 miles
Clouds Few 3400 ft
Windchill 30 °F
Dew Point 27 °F
Humidity 89%
Rainfall 0.00 in
Snow Depth Not available.
UV 0 out of 12
Pollen Not available.
Air Quality Not available.
Flu Activity Not available.
METAR EHDL 281825Z AUTO 20001KT 0500 R20/P3000 FZFG FEW034 M06/M06 Q1032 RED

More Conditions Fewer Conditions

Pressure 30.48 in
Visibility 0.3 miles
Clouds Few 3400 ft
Windchill 30 °F
Dew Point 27 °F
Humidity 89%
Rainfall 0.00 in
Snow Depth Not available.
UV 0 out of 12
Pollen Not available.
Air Quality Not available.
Flu Activity Not available.
METAR EHDL 281825Z AUTO 20001KT 0500 R20/P3000 FZFG FEW034 M06/M06 Q1032 RED

More Conditions Fewer Conditions

10-Day Weather Forecast

Almanac

Astronomy

Dec. 28, 2014 Rise Set
Actual Time
Civil Twilight
Nautical Twilight
Astronomical Twilight
Moon
Length of Visible Light
Length of Day
Tomorrow will be .
, % of the Moon is Illuminated

Today's Extremes

Country Highs Country Lows

Community

WunderPhotos

Upload Photos

1,781,383 photos uploaded!

WunderBlogs® & News

Nearby

Air Quality

  Air Quality AQ Index Pollutant
Not available.

Snow Depth

Station Depth Elevation

Earthquake Activity

City Distance Mag. Time & Date
Minimum magnitude displayed is 2.5.

Coastal Water Temperatures

Place Temperature

Nearby Weather Stations